Time;durP1;ratioP1;P1;durP2;ratioP2;P2;SDS_P1;SDS_P2;PMS_P1;PMS_P2;Temp;Humidity;BMP_temperature;BMP_pressure;BME280_temperature;BME280_humidity;BME280_pressure;Samples;Min_cycle;Max_cycle;Signal;HPM_P1;HPM_P2
2022/05/02 00:00:07;;;;;;;3.73;2.50;;;;;;;;;;2105683;28;20347;-58
2022/05/02 00:01:09;;;;;;;2.83;1.92;;;;;;;;;;2105552;28;20048;-58
2022/05/02 00:02:10;;;;;;;3.60;2.47;;;;;;;;;;2105698;28;20072;-58
2022/05/02 00:03:12;;;;;;;2.63;1.80;;;;;;;;;;2105583;28;20134;-58
2022/05/02 00:04:13;;;;;;;4.13;2.13;;;;;;;;;;2105746;28;20047;-46
2022/05/02 00:05:15;;;;;;;3.83;1.80;;;;;;;;;;2105594;28;20233;-46
2022/05/02 00:06:16;;;;;;;3.08;1.85;;;;;;;;;;2105639;28;20048;-46
2022/05/02 00:07:17;;;;;;;3.35;1.85;;;;;;;;;;2105499;28;20071;-46
2022/05/02 00:08:18;;;;;;;3.47;2.13;;;;;;;;;;2105684;28;20040;-46
2022/05/02 00:09:19;;;;;;;3.13;2.20;;;;;;;;;;2105499;28;20510;-46
2022/05/02 00:10:20;;;;;;;3.43;2.10;;;;;;;;;;2105652;28;20143;-46
2022/05/02 00:11:22;;;;;;;3.20;1.83;;;;;;;;;;2105601;28;20052;-47
2022/05/02 00:12:23;;;;;;;4.32;2.10;;;;;;;;;;2105485;28;20096;-47
2022/05/02 00:13:25;;;;;;;4.32;2.38;;;;;;;;;;2105476;28;20446;-46
2022/05/02 00:14:25;;;;;;;5.03;2.30;;;;;;;;;;2105389;28;20177;-46
2022/05/02 00:15:27;;;;;;;2.83;1.90;;;;;;;;;;2105484;28;20105;-46
2022/05/02 00:16:28;;;;;;;3.33;1.85;;;;;;;;;;2105456;28;20062;-46
2022/05/02 00:18:49;;;;;;;4.93;2.10;;;;;;;;;;2101166;28;20352;-47
2022/05/02 00:19:50;;;;;;;3.60;2.30;;;;;;;;;;2097146;28;20123;-46
2022/05/02 00:20:51;;;;;;;3.20;2.03;;;;;;;;;;2097157;28;20053;-46
2022/05/02 00:21:52;;;;;;;4.00;2.17;;;;;;;;;;2097032;28;20489;-46
2022/05/02 00:22:53;;;;;;;4.37;1.90;;;;;;;;;;2097030;28;20143;-46
2022/05/02 00:23:54;;;;;;;3.53;2.05;;;;;;;;;;2097162;28;20361;-46
2022/05/02 00:24:55;;;;;;;2.72;2.03;;;;;;;;;;2097132;28;20144;-46
2022/05/02 00:25:56;;;;;;;4.13;1.80;;;;;;;;;;2097031;28;20040;-46
2022/05/02 00:26:58;;;;;;;2.92;2.10;;;;;;;;;;2097191;28;20127;-46
2022/05/02 00:27:59;;;;;;;2.40;1.83;;;;;;;;;;2097008;28;20095;-46
2022/05/02 00:29:00;;;;;;;3.33;1.80;;;;;;;;;;2097095;28;20074;-46
2022/05/02 00:30:01;;;;;;;2.95;1.80;;;;;;;;;;2097125;28;20462;-46
2022/05/02 00:31:03;;;;;;;3.38;1.73;;;;;;;;;;2097191;28;20059;-46
2022/05/02 00:32:04;;;;;;;;;;;;;;;;;;2097616;28;20072;-46
2022/05/02 00:33:05;;;;;;;4.80;1.90;;;;;;;;;;2097251;28;19982;-46
2022/05/02 00:34:07;;;;;;;3.83;1.80;;;;;;;;;;2097031;28;20494;-46
2022/05/02 00:35:08;;;;;;;3.65;1.88;;;;;;;;;;2097040;28;20614;-46
2022/05/02 00:36:09;;;;;;;3.17;1.83;;;;;;;;;;2097165;28;20131;-46
2022/05/02 00:37:10;;;;;;;4.15;1.83;;;;;;;;;;2097052;28;20493;-46
2022/05/02 00:38:11;;;;;;;2.40;1.70;;;;;;;;;;2096830;28;20048;-46
2022/05/02 00:39:12;;;;;;;3.63;2.00;;;;;;;;;;2096953;28;20131;-46
2022/05/02 00:40:14;;;;;;;4.20;1.97;;;;;;;;;;2097188;28;20076;-46
2022/05/02 00:41:15;;;;;;;2.55;1.70;;;;;;;;;;2097116;28;20048;-45
2022/05/02 00:42:18;;;;;;;2.78;1.60;;;;;;;;;;2097075;28;20593;-47
2022/05/02 00:43:19;;;;;;;3.53;2.13;;;;;;;;;;2097052;28;20132;-46
2022/05/02 00:44:20;;;;;;;1.98;1.33;;;;;;;;;;2097070;28;20082;-46
2022/05/02 00:45:21;;;;;;;4.77;2.10;;;;;;;;;;2097003;28;20061;-47
2022/05/02 00:46:23;;;;;;;3.67;1.95;;;;;;;;;;2096950;28;20080;-46
2022/05/02 00:47:24;;;;;;;4.18;1.92;;;;;;;;;;2096956;28;20048;-46
2022/05/02 00:48:26;;;;;;;3.70;2.05;;;;;;;;;;2096865;28;20520;-46
2022/05/02 00:49:27;;;;;;;3.20;1.83;;;;;;;;;;2097219;28;20066;-47
2022/05/02 00:50:32;;;;;;;3.00;1.77;;;;;;;;;;2096986;28;20494;-47
2022/05/02 00:51:33;;;;;;;3.35;1.92;;;;;;;;;;2097007;28;20060;-46
2022/05/02 00:52:35;;;;;;;2.63;1.80;;;;;;;;;;2096893;28;20057;-46
2022/05/02 00:53:36;;;;;;;2.67;1.80;;;;;;;;;;2097003;28;20135;-46
2022/05/02 00:54:37;;;;;;;1.90;1.50;;;;;;;;;;2096988;28;20072;-46
2022/05/02 00:55:39;;;;;;;3.67;1.98;;;;;;;;;;2097060;28;20051;-46
2022/05/02 00:56:40;;;;;;;4.47;1.85;;;;;;;;;;2096916;28;20101;-46
2022/05/02 00:57:42;;;;;;;2.85;1.63;;;;;;;;;;2096904;28;20413;-46
2022/05/02 00:58:43;;;;;;;3.83;1.85;;;;;;;;;;2096885;28;20588;-46
2022/05/02 00:59:45;;;;;;;3.05;1.90;;;;;;;;;;2097013;28;20075;-47
2022/05/02 01:00:46;;;;;;;3.00;2.00;;;;;;;;;;2096923;28;20136;-46
2022/05/02 01:01:47;;;;;;;2.57;1.60;;;;;;;;;;2096899;28;20505;-45
2022/05/02 01:02:48;;;;;;;2.45;1.92;;;;;;;;;;2097017;28;20057;-46
2022/05/02 01:03:50;;;;;;;2.65;1.58;;;;;;;;;;2096717;28;20041;-46
2022/05/02 01:04:51;;;;;;;5.13;2.60;;;;;;;;;;2096851;28;20044;-47
2022/05/02 01:07:12;;;;;;;3.95;1.92;;;;;;;;;;2096930;28;20065;-46
2022/05/02 01:08:13;;;;;;;3.75;2.20;;;;;;;;;;2097486;28;20452;-46
2022/05/02 01:09:13;;;;;;;3.80;1.67;;;;;;;;;;2098320;28;20053;-46
2022/05/02 01:10:17;;;;;;;2.70;1.80;;;;;;;;;;2098253;28;20490;-46
2022/05/02 01:11:18;;;;;;;3.58;1.90;;;;;;;;;;2098391;28;20051;-45
2022/05/02 01:12:20;;;;;;;4.67;1.30;;;;;;;;;;2098288;28;20084;-46
2022/05/02 01:13:32;;;;;;;5.60;2.45;;;;;;;;;;2098164;28;20507;-46
2022/05/02 01:14:34;;;;;;;4.82;2.38;;;;;;;;;;2098279;28;20116;-46
2022/05/02 01:15:35;;;;;;;3.38;1.83;;;;;;;;;;2098406;28;20436;-46
2022/05/02 01:16:36;;;;;;;2.85;1.83;;;;;;;;;;2098381;28;20076;-46
2022/05/02 01:17:37;;;;;;;3.72;2.15;;;;;;;;;;2098273;28;20049;-46
2022/05/02 01:18:39;;;;;;;3.60;1.80;;;;;;;;;;2098160;28;20127;-46
2022/05/02 01:19:40;;;;;;;2.53;1.92;;;;;;;;;;2098150;28;20127;-46
2022/05/02 01:20:42;;;;;;;4.55;1.90;;;;;;;;;;2098314;28;20534;-46
2022/05/02 01:21:43;;;;;;;4.70;2.08;;;;;;;;;;2098129;28;20485;-45
2022/05/02 01:22:44;;;;;;;3.42;1.90;;;;;;;;;;2098163;28;20139;-46
2022/05/02 01:23:47;;;;;;;4.70;2.35;;;;;;;;;;2098094;28;20486;-46
2022/05/02 01:24:48;;;;;;;2.67;2.00;;;;;;;;;;2098151;28;20543;-46
2022/05/02 01:25:50;;;;;;;3.00;2.20;;;;;;;;;;2098205;28;20067;-46
2022/05/02 01:26:52;;;;;;;3.83;1.97;;;;;;;;;;2098172;28;20076;-47
2022/05/02 01:27:53;;;;;;;3.85;1.95;;;;;;;;;;2098231;28;20036;-47
2022/05/02 01:28:55;;;;;;;4.25;2.08;;;;;;;;;;2098060;28;20120;-46
2022/05/02 01:29:56;;;;;;;3.75;2.10;;;;;;;;;;2098285;28;20040;-47
2022/05/02 01:30:57;;;;;;;2.47;1.80;;;;;;;;;;2098109;28;20461;-46
2022/05/02 01:31:58;;;;;;;7.35;1.85;;;;;;;;;;2098146;28;20057;-46
2022/05/02 01:32:59;;;;;;;3.85;2.30;;;;;;;;;;2098200;28;20265;-46
2022/05/02 01:34:00;;;;;;;4.70;2.25;;;;;;;;;;2102004;28;20528;-46
2022/05/02 01:35:02;;;;;;;2.92;1.85;;;;;;;;;;2106628;28;20040;-46
2022/05/02 01:36:03;;;;;;;3.72;1.92;;;;;;;;;;2106443;28;20196;-46
2022/05/02 01:37:05;;;;;;;4.10;2.20;;;;;;;;;;2106466;28;20047;-46
2022/05/02 01:38:06;;;;;;;2.95;1.88;;;;;;;;;;2106454;28;20072;-46
2022/05/02 01:39:07;;;;;;;2.70;1.92;;;;;;;;;;2106452;28;20500;-46
2022/05/02 01:40:08;;;;;;;3.55;2.03;;;;;;;;;;2106469;28;20135;-46
2022/05/02 01:41:10;;;;;;;3.78;2.00;;;;;;;;;;2106644;28;20056;-46
2022/05/02 01:42:11;;;;;;;3.45;2.13;;;;;;;;;;2106400;28;20578;-46
2022/05/02 01:43:12;;;;;;;3.05;2.03;;;;;;;;;;2106406;28;20391;-46
2022/05/02 01:44:13;;;;;;;3.90;2.10;;;;;;;;;;2106357;28;20047;-46
2022/05/02 01:45:14;;;;;;;2.85;1.80;;;;;;;;;;2106454;28;20052;-46
2022/05/02 01:46:15;;;;;;;3.78;2.00;;;;;;;;;;2106362;28;20135;-46
2022/05/02 01:47:17;;;;;;;4.53;2.03;;;;;;;;;;2106480;28;20040;-46
2022/05/02 01:48:18;;;;;;;3.90;1.83;;;;;;;;;;2106414;28;20482;-46
2022/05/02 01:49:19;;;;;;;3.80;1.90;;;;;;;;;;2106286;28;20081;-46
2022/05/02 01:50:20;;;;;;;3.47;1.90;;;;;;;;;;2106395;28;20565;-46
2022/05/02 01:51:22;;;;;;;3.47;2.20;;;;;;;;;;2106456;28;20055;-46
2022/05/02 01:52:23;;;;;;;4.20;2.40;;;;;;;;;;2106462;28;20151;-47
2022/05/02 01:53:24;;;;;;;3.55;1.98;;;;;;;;;;2106372;28;20127;-46
2022/05/02 01:54:25;;;;;;;4.32;1.83;;;;;;;;;;2106391;28;20048;-46
2022/05/02 01:55:26;;;;;;;3.92;2.38;;;;;;;;;;2106488;28;20131;-46
2022/05/02 01:56:27;;;;;;;3.70;2.43;;;;;;;;;;2106368;28;20043;-46
2022/05/02 01:57:28;;;;;;;3.60;2.20;;;;;;;;;;2106442;28;20139;-45
2022/05/02 01:58:30;;;;;;;3.25;2.00;;;;;;;;;;2106370;28;20044;-46
2022/05/02 01:59:31;;;;;;;3.75;2.05;;;;;;;;;;2106460;28;20052;-47
2022/05/02 02:00:32;;;;;;;3.35;1.85;;;;;;;;;;2106278;28;20122;-46
2022/05/02 02:01:33;;;;;;;5.43;2.67;;;;;;;;;;2106411;28;20052;-46
2022/05/02 02:02:34;;;;;;;7.18;2.38;;;;;;;;;;2106360;28;20044;-46
2022/05/02 02:03:37;;;;;;;3.50;2.10;;;;;;;;;;2106339;28;20055;-46
2022/05/02 02:05:58;;;;;;;4.03;2.20;;;;;;;;;;2106334;28;20044;-46
2022/05/02 02:07:00;;;;;;;3.00;2.03;;;;;;;;;;2106219;28;20127;-46
2022/05/02 02:08:01;;;;;;;3.72;2.42;;;;;;;;;;2106462;28;20176;-46
2022/05/02 02:09:03;;;;;;;4.07;2.22;;;;;;;;;;2106293;28;20131;-46
2022/05/02 02:10:04;;;;;;;4.03;2.60;;;;;;;;;;2106248;28;20430;-46
2022/05/02 02:11:08;;;;;;;3.75;2.10;;;;;;;;;;2106200;28;20058;-46
2022/05/02 02:12:09;;;;;;;3.40;2.50;;;;;;;;;;2106290;28;20383;-46
2022/05/02 02:13:11;;;;;;;3.78;2.45;;;;;;;;;;2106263;28;20054;-46
2022/05/02 02:14:12;;;;;;;3.63;2.22;;;;;;;;;;2106273;28;20044;-46
2022/05/02 02:15:14;;;;;;;3.40;1.90;;;;;;;;;;2105619;28;20416;-45
2022/05/02 02:16:16;;;;;;;4.13;2.45;;;;;;;;;;2097783;28;20569;-46
2022/05/02 02:17:17;;;;;;;4.72;2.60;;;;;;;;;;2098043;28;20159;-47
2022/05/02 02:18:18;;;;;;;2.60;2.08;;;;;;;;;;2097860;28;20171;-46
2022/05/02 02:19:19;;;;;;;2.63;1.67;;;;;;;;;;2088993;28;20055;-46
2022/05/02 02:20:20;;;;;;;3.60;2.00;;;;;;;;;;2089207;28;20049;-46
2022/05/02 02:21:21;;;;;;;3.30;2.17;;;;;;;;;;2089719;28;20140;-46
2022/05/02 02:22:23;;;;;;;2.70;1.90;;;;;;;;;;2089605;28;20135;-46
2022/05/02 02:23:25;;;;;;;5.05;2.42;;;;;;;;;;2089460;28;20053;-46
2022/05/02 02:24:25;;;;;;;3.40;2.28;;;;;;;;;;2089415;28;20045;-46
2022/05/02 02:25:27;;;;;;;3.57;2.13;;;;;;;;;;2089631;28;20131;-46
2022/05/02 02:26:28;;;;;;;4.38;2.10;;;;;;;;;;2089581;28;20397;-46
2022/05/02 02:27:29;;;;;;;3.58;2.10;;;;;;;;;;2089491;28;20041;-46
2022/05/02 02:28:30;;;;;;;4.80;2.17;;;;;;;;;;2089577;28;20406;-46
2022/05/02 02:29:31;;;;;;;5.82;2.55;;;;;;;;;;2089444;28;20049;-46
2022/05/02 02:30:32;;;;;;;5.03;2.17;;;;;;;;;;2102356;28;20084;-46
2022/05/02 02:31:33;;;;;;;6.18;2.30;;;;;;;;;;2106175;28;20052;-44
2022/05/02 02:32:34;;;;;;;2.80;1.87;;;;;;;;;;2106148;28;20094;-45
2022/05/02 02:33:37;;;;;;;5.20;2.45;;;;;;;;;;2106093;28;20363;-46
2022/05/02 02:34:38;;;;;;;2.60;1.95;;;;;;;;;;2106145;28;20139;-46
2022/05/02 02:35:39;;;;;;;4.28;2.20;;;;;;;;;;2106119;28;20069;-46
2022/05/02 02:36:40;;;;;;;3.72;2.28;;;;;;;;;;2106316;28;20071;-58
2022/05/02 02:37:42;;;;;;;4.00;2.10;;;;;;;;;;2106155;28;20088;-58
2022/05/02 02:38:43;;;;;;;4.10;2.08;;;;;;;;;;2105995;28;20127;-58
2022/05/02 02:39:44;;;;;;;6.28;2.05;;;;;;;;;;2106033;28;20488;-58
2022/05/02 02:40:45;;;;;;;3.25;2.00;;;;;;;;;;2106203;28;20044;-58
2022/05/02 02:41:46;;;;;;;3.03;2.03;;;;;;;;;;2106485;28;20123;-58
2022/05/02 02:42:47;;;;;;;3.38;2.10;;;;;;;;;;2105975;28;20055;-58
2022/05/02 02:43:49;;;;;;;4.00;2.05;;;;;;;;;;2106108;28;20789;-57
2022/05/02 02:44:50;;;;;;;2.90;1.90;;;;;;;;;;2106323;28;20037;-58
2022/05/02 02:45:51;;;;;;;3.78;2.28;;;;;;;;;;2106053;28;20048;-58
2022/05/02 02:46:52;;;;;;;5.35;2.60;;;;;;;;;;2106001;28;20044;-58
2022/05/02 02:47:54;;;;;;;3.50;2.13;;;;;;;;;;2105998;28;20082;-58
2022/05/02 02:48:54;;;;;;;3.38;2.40;;;;;;;;;;2106135;28;20149;-58
2022/05/02 02:49:56;;;;;;;4.40;2.47;;;;;;;;;;2106034;28;20085;-58
2022/05/02 02:50:59;;;;;;;3.55;2.08;;;;;;;;;;2106128;28;20123;-58
2022/05/02 02:52:00;;;;;;;3.58;2.17;;;;;;;;;;2106172;28;20096;-58
2022/05/02 02:53:02;;;;;;;3.45;2.28;;;;;;;;;;2106184;28;20550;-45
2022/05/02 02:54:03;;;;;;;3.33;2.17;;;;;;;;;;2106010;28;20127;-46
2022/05/02 02:55:05;;;;;;;4.50;2.30;;;;;;;;;;2106079;28;20092;-46
2022/05/02 02:56:06;;;;;;;4.10;2.60;;;;;;;;;;2106034;28;20052;-46
2022/05/02 02:57:07;;;;;;;3.00;2.22;;;;;;;;;;2106074;28;20100;-46
2022/05/02 02:58:08;;;;;;;5.17;2.57;;;;;;;;;;2105926;28;20577;-45
2022/05/02 02:59:09;;;;;;;3.15;1.92;;;;;;;;;;2105824;28;20094;-46
2022/05/02 03:00:11;;;;;;;5.50;2.60;;;;;;;;;;2105980;28;20135;-46
2022/05/02 03:01:11;;;;;;;4.50;2.25;;;;;;;;;;2105852;28;20120;-46
2022/05/02 03:02:13;;;;;;;5.13;2.35;;;;;;;;;;2106013;28;20040;-46
2022/05/02 03:03:14;;;;;;;4.03;2.15;;;;;;;;;;2106058;28;20143;-58
2022/05/02 03:06:54;;;;;;;5.28;2.33;;;;;;;;;;2106240;28;20067;-46
2022/05/02 03:07:56;;;;;;;3.93;2.13;;;;;;;;;;2106113;28;20044;-46
2022/05/02 03:08:57;;;;;;;3.47;2.20;;;;;;;;;;2105837;28;20576;-46
2022/05/02 03:09:58;;;;;;;4.90;2.35;;;;;;;;;;2105939;28;20119;-46
2022/05/02 03:11:00;;;;;;;4.50;2.25;;;;;;;;;;2106018;28;20078;-46
2022/05/02 03:12:01;;;;;;;5.25;2.58;;;;;;;;;;2100717;28;20093;-46
2022/05/02 03:13:02;;;;;;;3.03;2.27;;;;;;;;;;2097528;28;20098;-46
2022/05/02 03:14:03;;;;;;;3.47;1.90;;;;;;;;;;2097463;28;20346;-46
2022/05/02 03:15:05;;;;;;;3.03;1.88;;;;;;;;;;2097509;28;20425;-46
2022/05/02 03:16:06;;;;;;;3.28;2.30;;;;;;;;;;2097542;28;20516;-46
2022/05/02 03:17:07;;;;;;;3.83;2.33;;;;;;;;;;2097557;28;20275;-46
2022/05/02 03:18:08;;;;;;;3.03;2.08;;;;;;;;;;2097677;28;20048;-46
2022/05/02 03:19:09;;;;;;;3.28;2.15;;;;;;;;;;2090377;28;20099;-46
2022/05/02 03:20:11;;;;;;;3.65;2.40;;;;;;;;;;2089311;28;20124;-46
2022/05/02 03:21:12;;;;;;;5.43;2.53;;;;;;;;;;2089222;28;20124;-46
2022/05/02 03:22:13;;;;;;;3.72;2.03;;;;;;;;;;2089274;28;20124;-46
2022/05/02 03:23:14;;;;;;;4.55;2.55;;;;;;;;;;2089175;28;20552;-46
2022/05/02 03:24:16;;;;;;;3.35;2.15;;;;;;;;;;2089450;28;20045;-58
2022/05/02 03:25:17;;;;;;;3.78;2.20;;;;;;;;;;2089220;28;20070;-58
2022/05/02 03:26:18;;;;;;;4.28;2.40;;;;;;;;;;2093785;28;20059;-58
2022/05/02 03:27:19;;;;;;;4.03;2.53;;;;;;;;;;2105782;28;20044;-58
2022/05/02 03:28:20;;;;;;;2.58;2.05;;;;;;;;;;2105687;28;20123;-58
2022/05/02 03:29:21;;;;;;;4.25;2.42;;;;;;;;;;2105622;28;20146;-59
2022/05/02 03:30:22;;;;;;;3.53;2.42;;;;;;;;;;2105705;28;20040;-58
2022/05/02 03:31:26;;;;;;;3.53;2.20;;;;;;;;;;2105539;28;20126;-58
2022/05/02 03:32:28;;;;;;;7.43;2.30;;;;;;;;;;2105692;28;20048;-58
2022/05/02 03:33:29;;;;;;;5.00;2.40;;;;;;;;;;2105667;28;20493;-58
2022/05/02 03:34:30;;;;;;;3.88;2.30;;;;;;;;;;2105647;28;20083;-58
2022/05/02 03:35:31;;;;;;;4.88;2.70;;;;;;;;;;2105812;28;20079;-58
2022/05/02 03:36:34;;;;;;;4.45;2.65;;;;;;;;;;2105758;28;20177;-58
2022/05/02 03:37:34;;;;;;;3.67;2.33;;;;;;;;;;2105772;28;20048;-58
2022/05/02 03:38:36;;;;;;;5.20;2.70;;;;;;;;;;2105806;28;20504;-58
2022/05/02 03:39:37;;;;;;;4.05;2.50;;;;;;;;;;2105663;28;20122;-58
2022/05/02 03:40:38;;;;;;;5.28;2.72;;;;;;;;;;2105806;28;20048;-58
2022/05/02 03:41:39;;;;;;;4.57;2.38;;;;;;;;;;2105701;28;20121;-58
2022/05/02 03:42:40;;;;;;;4.82;2.60;;;;;;;;;;2105762;28;20150;-58
2022/05/02 03:43:42;;;;;;;5.32;2.40;;;;;;;;;;2105624;28;20229;-58
2022/05/02 03:44:43;;;;;;;4.82;2.40;;;;;;;;;;2105645;28;20138;-58
2022/05/02 03:45:45;;;;;;;6.30;2.47;;;;;;;;;;2105569;28;20048;-58
2022/05/02 03:46:46;;;;;;;5.65;2.80;;;;;;;;;;2105785;28;20119;-58
2022/05/02 03:47:47;;;;;;;4.68;2.83;;;;;;;;;;2105646;28;20485;-58
2022/05/02 03:48:48;;;;;;;3.75;2.50;;;;;;;;;;2105892;28;20185;-58
2022/05/02 03:49:49;;;;;;;5.53;2.17;;;;;;;;;;2105705;28;20476;-58
2022/05/02 03:50:50;;;;;;;5.18;2.30;;;;;;;;;;2105580;28;20036;-58
2022/05/02 03:51:51;;;;;;;3.90;2.20;;;;;;;;;;2105697;28;20394;-58
2022/05/02 03:52:52;;;;;;;3.38;2.10;;;;;;;;;;2105544;28;20062;-58
2022/05/02 03:53:53;;;;;;;4.72;2.78;;;;;;;;;;2105525;28;20131;-58
2022/05/02 03:54:55;;;;;;;4.18;2.53;;;;;;;;;;2105731;28;20040;-59
2022/05/02 03:55:56;;;;;;;3.72;2.17;;;;;;;;;;2105721;28;20054;-58
2022/05/02 03:56:57;;;;;;;5.18;2.28;;;;;;;;;;2105622;28;20293;-58
2022/05/02 03:57:58;;;;;;;3.28;2.30;;;;;;;;;;2105538;28;20580;-58
2022/05/02 03:59:00;;;;;;;2.78;1.88;;;;;;;;;;2105619;28;20055;-58
2022/05/02 04:00:00;;;;;;;3.33;2.20;;;;;;;;;;2105659;28;20119;-58
2022/05/02 04:01:02;;;;;;;3.80;2.08;;;;;;;;;;2105933;28;20052;-58
2022/05/02 04:02:03;;;;;;;6.22;2.70;;;;;;;;;;2105575;28;20046;-58
2022/05/02 04:03:05;;;;;;;4.22;2.20;;;;;;;;;;2105708;28;20123;-58
2022/05/02 04:04:06;;;;;;;3.35;2.13;;;;;;;;;;2105531;28;20059;-58
2022/05/02 04:05:08;;;;;;;4.75;2.40;;;;;;;;;;2105724;28;20048;-58
2022/05/02 04:06:09;;;;;;;5.10;2.35;;;;;;;;;;2105451;28;20044;-58
2022/05/02 04:07:10;;;;;;;6.53;2.95;;;;;;;;;;2105693;28;20072;-58
2022/05/02 04:08:11;;;;;;;4.18;2.30;;;;;;;;;;2100903;28;20135;-58
2022/05/02 04:09:12;;;;;;;3.10;2.07;;;;;;;;;;2097092;28;20045;-58
2022/05/02 04:10:14;;;;;;;4.47;2.08;;;;;;;;;;2097417;28;20044;-46
2022/05/02 04:11:15;;;;;;;5.30;2.15;;;;;;;;;;2097255;28;20128;-45
2022/05/02 04:12:16;;;;;;;3.95;2.25;;;;;;;;;;2097248;28;20049;-46
2022/05/02 04:13:17;;;;;;;4.93;2.42;;;;;;;;;;2097115;28;20123;-47
2022/05/02 04:14:18;;;;;;;3.90;2.33;;;;;;;;;;2097039;28;20059;-46
2022/05/02 04:15:19;;;;;;;3.27;2.60;;;;;;;;;;2097209;28;20131;-46
2022/05/02 04:16:20;;;;;;;4.20;2.30;;;;;;;;;;2097302;28;20535;-47
2022/05/02 04:17:22;;;;;;;3.42;2.33;;;;;;;;;;2097213;28;20076;-46
2022/05/02 04:18:22;;;;;;;2.90;2.00;;;;;;;;;;2096787;28;20481;-58
2022/05/02 04:19:24;;;;;;;4.33;2.20;;;;;;;;;;2088865;28;20049;-58
2022/05/02 04:20:25;;;;;;;4.03;2.10;;;;;;;;;;2089075;28;20076;-58
2022/05/02 04:21:26;;;;;;;3.08;2.30;;;;;;;;;;2088917;28;20124;-58
2022/05/02 04:22:33;;;;;;;3.22;2.25;;;;;;;;;;2093775;28;20052;-45
2022/05/02 04:23:34;;;;;;;2.90;2.00;;;;;;;;;;2105584;28;20050;-46
2022/05/02 04:24:35;;;;;;;3.20;2.00;;;;;;;;;;2105414;28;20359;-46
2022/05/02 04:25:37;;;;;;;4.32;2.10;;;;;;;;;;2105434;28;20098;-46
2022/05/02 04:26:38;;;;;;;3.20;1.83;;;;;;;;;;2105482;28;20050;-46
2022/05/02 04:27:39;;;;;;;3.50;1.90;;;;;;;;;;2105750;28;20127;-47
2022/05/02 04:28:40;;;;;;;3.45;2.25;;;;;;;;;;2105292;28;20500;-47
2022/05/02 04:29:41;;;;;;;3.70;2.17;;;;;;;;;;2105467;28;20052;-46
2022/05/02 04:30:42;;;;;;;3.20;2.05;;;;;;;;;;2105542;28;20130;-47
2022/05/02 04:31:43;;;;;;;3.72;1.88;;;;;;;;;;2105581;28;20123;-46
2022/05/02 04:32:44;;;;;;;3.25;1.60;;;;;;;;;;2105568;28;20109;-47
2022/05/02 04:33:45;;;;;;;4.13;1.83;;;;;;;;;;2105580;28;20481;-47
2022/05/02 04:34:46;;;;;;;4.03;2.15;;;;;;;;;;2105486;28;20127;-46
2022/05/02 04:35:48;;;;;;;3.38;2.00;;;;;;;;;;2105404;28;20470;-46
2022/05/02 04:36:49;;;;;;;3.67;2.10;;;;;;;;;;2105373;28;20446;-46
2022/05/02 04:37:50;;;;;;;3.40;1.90;;;;;;;;;;2105341;28;20110;-47
2022/05/02 04:38:51;;;;;;;2.83;1.90;;;;;;;;;;2105316;28;20032;-46
2022/05/02 04:39:52;;;;;;;3.58;1.90;;;;;;;;;;2105298;28;20606;-45
2022/05/02 04:40:55;;;;;;;2.78;1.77;;;;;;;;;;2105479;28;20068;-46
2022/05/02 04:41:56;;;;;;;3.10;1.92;;;;;;;;;;2105675;28;20043;-46
2022/05/02 04:42:57;;;;;;;4.15;2.08;;;;;;;;;;2105609;28;20127;-46
2022/05/02 04:43:58;;;;;;;5.00;2.20;;;;;;;;;;2106955;28;20047;-46
2022/05/02 04:44:59;;;;;;;2.47;1.70;;;;;;;;;;2107009;28;20115;-47
2022/05/02 04:46:00;;;;;;;4.83;2.03;;;;;;;;;;2106694;28;20508;-46
2022/05/02 04:47:02;;;;;;;4.82;2.20;;;;;;;;;;2106758;28;20461;-46
2022/05/02 04:48:03;;;;;;;2.67;1.80;;;;;;;;;;2107006;28;20040;-45
2022/05/02 04:49:04;;;;;;;3.50;2.00;;;;;;;;;;2106701;28;20562;-46
2022/05/02 04:50:06;;;;;;;4.35;2.00;;;;;;;;;;2106792;28;20047;-46
2022/05/02 04:51:07;;;;;;;3.78;1.75;;;;;;;;;;2106861;28;20128;-46
2022/05/02 04:52:08;;;;;;;2.83;1.67;;;;;;;;;;2106960;28;20098;-46
2022/05/02 04:53:09;;;;;;;4.28;2.10;;;;;;;;;;2106745;28;20160;-46
2022/05/02 04:54:10;;;;;;;3.87;1.83;;;;;;;;;;2106696;28;20048;-46
2022/05/02 04:55:11;;;;;;;5.65;2.17;;;;;;;;;;2106744;28;20527;-45
2022/05/02 04:56:13;;;;;;;3.67;1.70;;;;;;;;;;2106949;28;20048;-46
2022/05/02 04:57:14;;;;;;;2.35;1.63;;;;;;;;;;2106930;28;20131;-46
2022/05/02 04:58:15;;;;;;;4.82;2.20;;;;;;;;;;2106721;28;20094;-46
2022/05/02 04:59:16;;;;;;;4.60;2.20;;;;;;;;;;2106726;28;20044;-46
2022/05/02 05:00:17;;;;;;;3.95;1.80;;;;;;;;;;2106701;28;20481;-46
2022/05/02 05:01:19;;;;;;;2.35;1.77;;;;;;;;;;2106811;28;20126;-46
2022/05/02 05:02:20;;;;;;;3.00;1.90;;;;;;;;;;2106724;28;20048;-46
2022/05/02 05:03:22;;;;;;;3.42;1.80;;;;;;;;;;2106649;28;20604;-46
2022/05/02 05:04:23;;;;;;;4.28;1.67;;;;;;;;;;2102483;28;20369;-46
2022/05/02 05:05:24;;;;;;;3.60;1.98;;;;;;;;;;2098486;28;20048;-46
2022/05/02 05:06:25;;;;;;;2.97;2.03;;;;;;;;;;2098451;28;20532;-46
2022/05/02 05:07:26;;;;;;;3.40;1.63;;;;;;;;;;2098232;28;20174;-47
2022/05/02 05:08:28;;;;;;;3.50;1.67;;;;;;;;;;2098260;28;20565;-46
2022/05/02 05:09:30;;;;;;;2.25;1.35;;;;;;;;;;2098284;28;20079;-46
2022/05/02 05:10:36;;;;;;;2.40;1.90;;;;;;;;;;2098463;28;20426;-46
2022/05/02 05:11:42;;;;;;;2.97;1.48;;;;;;;;;;2098255;28;20101;-46
2022/05/02 05:12:50;;;;;;;3.50;1.75;;;;;;;;;;2098427;28;20066;-46
2022/05/02 05:16:45;;;;;;;2.85;1.85;;;;;;;;;;2098469;28;20044;-46
2022/05/02 05:17:50;;;;;;;3.53;1.63;;;;;;;;;;2098256;28;20557;-47
2022/05/02 05:18:59;;;;;;;2.35;1.23;;;;;;;;;;2099494;28;20088;-46
2022/05/02 05:20:08;;;;;;;2.78;1.40;;;;;;;;;;2106669;28;20127;-46
2022/05/02 05:21:15;;;;;;;3.30;1.70;;;;;;;;;;2106743;28;20052;-46
2022/05/02 05:22:34;;;;;;;1.85;1.20;;;;;;;;;;2106650;28;20076;-46
2022/05/02 05:23:50;;;;;;;2.67;1.48;;;;;;;;;;2106626;28;20127;-46
2022/05/02 05:24:59;;;;;;;2.75;1.38;;;;;;;;;;2106641;28;20036;-47
2022/05/02 05:26:05;;;;;;;3.70;1.42;;;;;;;;;;2106590;28;20036;-47
2022/05/02 05:27:13;;;;;;;2.20;1.40;;;;;;;;;;2106805;28;20058;-46
2022/05/02 05:28:32;;;;;;;3.10;1.40;;;;;;;;;;2106516;28;20511;-46
2022/05/02 05:29:34;;;;;;;2.17;1.30;;;;;;;;;;2096101;28;20052;-46
2022/05/02 05:30:39;;;;;;;2.42;1.55;;;;;;;;;;2106593;28;20474;-47
2022/05/02 05:31:49;;;;;;;2.80;1.40;;;;;;;;;;2106623;28;20139;-47
2022/05/02 05:33:03;;;;;;;3.03;1.75;;;;;;;;;;2106570;28;20040;-46
2022/05/02 05:34:06;;;;;;;2.85;1.52;;;;;;;;;;2106447;28;20190;-47
2022/05/02 05:35:08;;;;;;;2.00;1.40;;;;;;;;;;2106548;28;20071;-47
2022/05/02 05:36:15;;;;;;;2.35;1.50;;;;;;;;;;2106566;28;20529;-47
2022/05/02 05:37:42;;;;;;;3.40;1.25;;;;;;;;;;2106519;28;20059;-47
2022/05/02 05:38:48;;;;;;;2.67;1.40;;;;;;;;;;2106476;28;20519;-46
2022/05/02 05:39:54;;;;;;;4.28;1.67;;;;;;;;;;2106569;28;20108;-47
2022/05/02 05:41:01;;;;;;;2.20;1.42;;;;;;;;;;2106364;28;20501;-46
2022/05/02 05:42:07;;;;;;;3.95;1.65;;;;;;;;;;2106626;28;20123;-47
2022/05/02 05:43:37;;;;;;;3.60;1.40;;;;;;;;;;2106432;28;20548;-46
2022/05/02 05:44:44;;;;;;;2.92;1.48;;;;;;;;;;2106466;28;20432;-47
2022/05/02 05:45:50;;;;;;;3.10;1.35;;;;;;;;;;2106548;28;20040;-47
2022/05/02 05:47:01;;;;;;;2.72;1.30;;;;;;;;;;2106663;28;20131;-59
2022/05/02 05:48:06;;;;;;;3.08;1.45;;;;;;;;;;2106581;28;20048;-59
2022/05/02 05:49:08;;;;;;;3.42;1.30;;;;;;;;;;2106566;28;20054;-58
2022/05/02 05:50:16;;;;;;;1.88;1.30;;;;;;;;;;2106372;28;20176;-60
2022/05/02 05:51:23;;;;;;;3.10;1.50;;;;;;;;;;2106443;28;20048;-59
2022/05/02 05:52:31;;;;;;;2.67;1.45;;;;;;;;;;2106412;28;20055;-60
2022/05/02 05:53:38;;;;;;;2.35;1.63;;;;;;;;;;2106589;28;20055;-60
2022/05/02 05:54:55;;;;;;;2.55;1.23;;;;;;;;;;2106399;28;20515;-60
2022/05/02 05:56:06;;;;;;;2.97;1.27;;;;;;;;;;2106645;28;20048;-60
2022/05/02 05:57:17;;;;;;;2.60;1.50;;;;;;;;;;2106419;28;20396;-60
2022/05/02 05:58:24;;;;;;;3.60;1.65;;;;;;;;;;2106557;28;20054;-60
2022/05/02 05:59:32;;;;;;;2.90;1.48;;;;;;;;;;2106544;28;20040;-60
2022/05/02 06:00:36;;;;;;;3.80;1.30;;;;;;;;;;2102957;28;20169;-60
2022/05/02 06:01:46;;;;;;;3.20;1.33;;;;;;;;;;2097977;28;20480;-60
2022/05/02 06:03:00;;;;;;;3.13;1.50;;;;;;;;;;2097926;28;20123;-60
2022/05/02 06:04:03;;;;;;;3.80;1.60;;;;;;;;;;2098019;28;20398;-60
2022/05/02 06:05:04;;;;;;;2.55;1.58;;;;;;;;;;2098038;28;20132;-59
2022/05/02 06:06:06;;;;;;;2.47;1.20;;;;;;;;;;2098041;28;20171;-60
2022/05/02 06:07:07;;;;;;;4.15;1.63;;;;;;;;;;2098074;28;20067;-60
2022/05/02 06:08:09;;;;;;;2.83;1.50;;;;;;;;;;2097918;28;20131;-60
2022/05/02 06:09:10;;;;;;;2.75;1.25;;;;;;;;;;2098017;28;20131;-59
2022/05/02 06:10:13;;;;;;;3.20;1.38;;;;;;;;;;2097917;28;20053;-60
2022/05/02 06:11:16;;;;;;;3.30;1.38;;;;;;;;;;2097878;28;20048;-60
2022/05/02 06:12:20;;;;;;;3.42;1.40;;;;;;;;;;2097814;28;20056;-60
2022/05/02 06:13:22;;;;;;;2.30;1.58;;;;;;;;;;2098097;28;20050;-60
2022/05/02 06:18:42;;;;;;;3.45;1.70;;;;;;;;;;2092208;28;20157;-60
2022/05/02 06:19:43;;;;;;;1.60;1.20;;;;;;;;;;2097874;28;20135;-60
2022/05/02 06:20:45;;;;;;;1.95;1.20;;;;;;;;;;2098173;28;20075;-60
2022/05/02 06:21:46;;;;;;;;;;;;;;;;;;2098304;28;20186;-60
2022/05/02 06:22:47;;;;;;;3.15;1.38;;;;;;;;;;2097959;28;19950;-60
2022/05/02 06:23:50;;;;;;;1.98;1.10;;;;;;;;;;2097823;28;20036;-59
2022/05/02 06:24:52;;;;;;;3.17;1.23;;;;;;;;;;2097947;28;20132;-60
2022/05/02 06:25:54;;;;;;;2.40;1.20;;;;;;;;;;2097736;28;20131;-60
2022/05/02 06:26:56;;;;;;;2.63;1.60;;;;;;;;;;2097922;28;20101;-60